Time,TemperatureF,DewpointF,PressureIn,WindDirection,WindDirectionDegrees,WindSpeedMPH,WindSpeedGustMPH,Humidity,HourlyPrecipIn,Conditions,Clouds,dailyrainin,SoftwareType,DateUTC
2013-03-06 09:52:00,42.0,41.0,25.84,SE,141,4.0,9.0,98,0.00,,,0.00,,2013-03-06 17:52:00,
2013-03-06 10:01:00,42.0,41.0,25.84,SE,126,5.0,18.0,98,0.00,,,0.00,,2013-03-06 18:01:00,
2013-03-06 10:28:00,43.0,42.0,25.83,SE,142,4.0,10.0,98,0.00,,,0.00,,2013-03-06 18:28:00,
2013-03-06 10:42:00,43.0,42.0,25.84,SE,127,4.0,11.0,98,0.02,,,0.02,,2013-03-06 18:42:00,
2013-03-06 10:52:00,43.0,42.0,25.83,SE,139,6.0,11.0,98,0.03,,,0.03,,2013-03-06 18:52:00,
2013-03-06 11:02:00,43.0,42.0,25.86,SSE,158,3.0,12.0,98,0.06,,,0.06,,2013-03-06 19:02:00,
2013-03-06 11:11:00,43.0,42.0,25.86,SSE,158,3.0,12.0,98,0.06,,,0.06,,2013-03-06 19:11:00,
2013-03-06 11:21:00,43.0,42.0,25.84,SE,141,6.0,17.0,97,0.07,,,0.07,,2013-03-06 19:21:00,
2013-03-06 11:32:00,43.0,42.0,25.84,ESE,119,8.0,16.0,98,0.06,,,0.08,,2013-03-06 19:32:00,
2013-03-06 11:42:00,43.0,42.0,25.84,ESE,119,8.0,16.0,98,0.06,,,0.08,,2013-03-06 19:42:00,
2013-03-06 11:52:00,43.0,42.0,25.84,SE,126,5.0,18.0,98,0.05,,,0.08,,2013-03-06 19:52:00,
2013-03-06 12:01:00,43.0,42.0,25.82,SE,131,5.0,19.0,97,0.03,,,0.08,,2013-03-06 20:01:00,
2013-03-06 12:11:00,43.0,42.0,25.82,SE,131,5.0,19.0,97,0.03,,,0.08,,2013-03-06 20:11:00,
2013-03-06 12:21:00,45.0,44.0,25.84,SE,132,5.0,14.0,98,0.01,,,0.08,,2013-03-06 20:21:00,
2013-03-06 12:32:00,45.0,44.0,25.85,SE,139,6.0,18.0,97,0.00,,,0.08,,2013-03-06 20:32:00,
2013-03-06 12:42:00,45.0,44.0,25.85,SE,139,6.0,18.0,97,0.00,,,0.08,,2013-03-06 20:42:00,
2013-03-06 12:52:00,45.0,44.0,25.85,SE,139,6.0,18.0,97,0.00,,,0.08,,2013-03-06 20:52:00,
2013-03-06 13:02:00,45.0,44.0,25.83,SSE,157,4.0,16.0,97,0.02,,,0.10,,2013-03-06 21:02:00,
2013-03-06 13:11:00,45.0,44.0,25.83,SSE,157,4.0,16.0,97,0.02,,,0.10,,2013-03-06 21:11:00,
2013-03-06 13:22:00,45.0,44.0,25.83,SSE,151,5.0,15.0,96,0.02,,,0.10,,2013-03-06 21:22:00,
2013-03-06 13:32:00,44.0,43.0,25.82,SSE,148,2.0,16.0,96,0.02,,,0.10,,2013-03-06 21:32:00,
2013-03-06 13:41:00,44.0,43.0,25.82,SSE,148,2.0,16.0,96,0.02,,,0.10,,2013-03-06 21:41:00,
2013-03-06 13:51:00,44.0,43.0,25.82,SSE,148,2.0,16.0,96,0.02,,,0.10,,2013-03-06 21:51:00,
2013-03-06 14:01:00,45.0,44.0,25.83,SE,131,4.0,11.0,96,0.01,,,0.11,,2013-03-06 22:01:00,
2013-03-06 14:11:00,45.0,44.0,25.83,SE,131,4.0,11.0,96,0.01,,,0.11,,2013-03-06 22:11:00,
2013-03-06 14:21:00,46.0,44.0,25.84,SE,128,4.0,23.0,94,0.01,,,0.11,,2013-03-06 22:21:00,
2013-03-06 14:31:00,46.0,44.0,25.84,ESE,121,6.0,19.0,93,0.01,,,0.11,,2013-03-06 22:31:00,
2013-03-06 14:41:00,46.0,44.0,25.84,ESE,121,6.0,19.0,93,0.01,,,0.11,,2013-03-06 22:41:00,
2013-03-06 14:51:00,46.0,44.0,25.83,SE,134,8.0,19.0,91,0.00,,,0.11,,2013-03-06 22:51:00,
2013-03-06 15:01:00,46.0,44.0,25.83,SSE,152,2.0,12.0,93,0.00,,,0.11,,2013-03-06 23:01:00,
2013-03-06 15:11:00,46.0,44.0,25.83,SSE,152,2.0,12.0,93,0.00,,,0.11,,2013-03-06 23:11:00,
2013-03-06 15:21:00,46.0,44.0,25.84,SE,135,4.0,21.0,93,0.00,,,0.11,,2013-03-06 23:21:00,
2013-03-06 15:31:00,45.0,43.0,25.84,SE,140,5.0,14.0,92,0.00,,,0.11,,2013-03-06 23:31:00,
2013-03-06 15:41:00,45.0,43.0,25.84,SE,140,5.0,14.0,92,0.00,,,0.11,,2013-03-06 23:41:00,
2013-03-06 15:52:00,45.0,43.0,25.82,ESE,111,3.0,14.0,92,0.00,,,0.11,,2013-03-06 23:52:00,